Terminal Aerodrome Forecast
Issued by NWS Charleston, WV

Home | Current Version | Previous Version | Text Only | Print | Product List | Glossary On
Versions: 1 2 3 4 5 6 7 8 9 10 11 12 13 14 15 16 17 18 19 20 21 22 23 24 25
000
FTUS41 KRLX 270200 AAA
TAFEKN
TAF AMD
KEKN 270237Z 2703/2724 32007KT P6SM -RA OVC012
     FM270400 31006KT P6SM -RA OVC015
     FM270800 31005KT P6SM OVC015
     FM271500 31004KT 5SM -SN OVC015
     FM271700 31005KT 5SM -SN BKN025
     FM272100 30006KT 3SM -SN BKN025=

USA.gov is the U.S. government's official web portal to all federal, state and local government web resources and services.